RBA684 RPVM-WBSB
Flight info
| Callsign | RBA684 |
|---|---|
| Flight time | N/A |
| Altitude | 38000 |
| Route | ALDIN4P ALDIN G578 ZAM A341 VSN W461 BRU |
| Aircraft | A20N/M-SDE2E3FGHIRWXY/LB1 |
Departure
| Time | 2026-04-29 07:44 |
|---|---|
| Airport | Mactan Cebu International Airport (RPVM) |
Arrival
| Time | N/A |
|---|---|
| Airport | Brunei International Airport (WBSB) |
| Time | Latitude | Longitude | Altitude | Speed | Heading |
|---|---|---|---|---|---|
| 2026-04-29 07:10 | 10.31459 | 123.97884 | 37 ft | 0 kts | 314° |
| 2026-04-29 07:33 | 10.31459 | 123.97885 | 37 ft | 1 kts | 313° |
| 2026-04-29 07:34 | 10.31449 | 123.97895 | 37 ft | 2 kts | 316° |
| 2026-04-29 07:34 | 10.31442 | 123.97902 | 37 ft | 2 kts | 314° |
| 2026-04-29 07:34 | 10.31433 | 123.97914 | 37 ft | 2 kts | 295° |
| 2026-04-29 07:34 | 10.31428 | 123.97929 | 36 ft | 2 kts | 279° |
| 2026-04-29 07:35 | 10.31427 | 123.97944 | 37 ft | 2 kts | 264° |
| 2026-04-29 07:35 | 10.31430 | 123.97958 | 37 ft | 2 kts | 248° |
| 2026-04-29 07:35 | 10.31438 | 123.97972 | 36 ft | 2 kts | 232° |
| 2026-04-29 07:35 | 10.31443 | 123.97978 | 36 ft | 1 kts | 222° |
| 2026-04-29 07:36 | 10.31446 | 123.97980 | 36 ft | 0 kts | 224° |
| 2026-04-29 07:36 | 10.31445 | 123.97980 | 36 ft | 0 kts | 224° |
| 2026-04-29 07:37 | 10.31442 | 123.97977 | 36 ft | 2 kts | 224° |
| 2026-04-29 07:38 | 10.31422 | 123.97957 | 36 ft | 5 kts | 225° |
| 2026-04-29 07:38 | 10.31386 | 123.97920 | 36 ft | 8 kts | 225° |
| 2026-04-29 07:38 | 10.31320 | 123.97906 | 36 ft | 11 kts | 152° |
| 2026-04-29 07:38 | 10.31254 | 123.97967 | 36 ft | 13 kts | 145° |
| 2026-04-29 07:39 | 10.31163 | 123.97943 | 36 ft | 16 kts | 226° |
| 2026-04-29 07:39 | 10.31079 | 123.97858 | 36 ft | 18 kts | 223° |
| 2026-04-29 07:39 | 10.30985 | 123.97763 | 36 ft | 19 kts | 225° |
| 2026-04-29 07:39 | 10.30885 | 123.97660 | 36 ft | 21 kts | 226° |
| 2026-04-29 07:40 | 10.30777 | 123.97553 | 36 ft | 22 kts | 225° |
| 2026-04-29 07:40 | 10.30664 | 123.97440 | 36 ft | 23 kts | 224° |
| 2026-04-29 07:40 | 10.30544 | 123.97319 | 36 ft | 24 kts | 224° |
| 2026-04-29 07:40 | 10.30421 | 123.97197 | 36 ft | 25 kts | 224° |
| 2026-04-29 07:41 | 10.30294 | 123.97070 | 36 ft | 25 kts | 224° |
| 2026-04-29 07:41 | 10.30164 | 123.96940 | 36 ft | 26 kts | 224° |
| 2026-04-29 07:41 | 10.30032 | 123.96808 | 36 ft | 26 kts | 225° |
| 2026-04-29 07:41 | 10.29924 | 123.96709 | 36 ft | 13 kts | 204° |
| 2026-04-29 07:42 | 10.29864 | 123.96726 | 36 ft | 8 kts | 136° |
| 2026-04-29 07:42 | 10.29821 | 123.96770 | 36 ft | 7 kts | 135° |
| 2026-04-29 07:42 | 10.29788 | 123.96806 | 36 ft | 5 kts | 134° |
| 2026-04-29 07:42 | 10.29757 | 123.96836 | 36 ft | 6 kts | 135° |
| 2026-04-29 07:43 | 10.29721 | 123.96877 | 36 ft | 7 kts | 113° |
| 2026-04-29 07:43 | 10.29741 | 123.96927 | 36 ft | 8 kts | 41° |
| 2026-04-29 07:43 | 10.29788 | 123.96973 | 36 ft | 10 kts | 45° |
| 2026-04-29 07:43 | 10.29944 | 123.97129 | 36 ft | 64 kts | 45° |
| 2026-04-29 07:44 | 10.30429 | 123.97615 | 37 ft | 128 kts | 45° |
| 2026-04-29 07:44 | 10.31166 | 123.98351 | 325 ft | 150 kts | 46° |
| 2026-04-29 07:44 | 10.31875 | 123.99058 | 977 ft | 144 kts | 45° |
| 2026-04-29 07:44 | 10.32593 | 123.99784 | 1519 ft | 148 kts | 45° |
| 2026-04-29 07:45 | 10.33313 | 124.00530 | 1967 ft | 153 kts | 51° |
| 2026-04-29 07:45 | 10.33641 | 124.01567 | 2213 ft | 169 kts | 98° |
| 2026-04-29 07:45 | 10.33058 | 124.02672 | 2504 ft | 187 kts | 125° |
| 2026-04-29 07:45 | 10.32252 | 124.03759 | 2803 ft | 202 kts | 123° |
| 2026-04-29 07:46 | 10.31401 | 124.04985 | 3104 ft | 220 kts | 122° |
| 2026-04-29 07:46 | 10.30489 | 124.06340 | 3375 ft | 243 kts | 121° |
| 2026-04-29 07:46 | 10.29506 | 124.07812 | 3787 ft | 260 kts | 121° |
| 2026-04-29 07:46 | 10.28478 | 124.09360 | 4402 ft | 270 kts | 121° |
| 2026-04-29 07:47 | 10.27424 | 124.10949 | 5190 ft | 273 kts | 121° |
| 2026-04-29 07:47 | 10.26369 | 124.12543 | 5987 ft | 275 kts | 120° |
| 2026-04-29 07:47 | 10.25302 | 124.14157 | 6775 ft | 278 kts | 120° |
| 2026-04-29 07:47 | 10.24224 | 124.15794 | 7524 ft | 282 kts | 120° |
| 2026-04-29 07:48 | 10.23128 | 124.17456 | 8260 ft | 286 kts | 120° |
| 2026-04-29 07:48 | 10.22024 | 124.19128 | 8963 ft | 289 kts | 120° |
| 2026-04-29 07:48 | 10.20867 | 124.20810 | 9647 ft | 295 kts | 127° |
| 2026-04-29 07:48 | 10.19231 | 124.22097 | 10274 ft | 307 kts | 152° |
| 2026-04-29 07:49 | 10.17100 | 124.22622 | 10662 ft | 327 kts | 178° |
| 2026-04-29 07:49 | 10.14787 | 124.22298 | 10965 ft | 345 kts | 190° |
| 2026-04-29 07:49 | 10.12370 | 124.21769 | 11244 ft | 361 kts | 191° |
| 2026-04-29 07:49 | 10.09862 | 124.21223 | 11510 ft | 377 kts | 190° |
| 2026-04-29 07:50 | 10.07235 | 124.20668 | 11763 ft | 391 kts | 190° |
| 2026-04-29 07:50 | 10.04505 | 124.20105 | 12005 ft | 405 kts | 190° |
| 2026-04-29 07:50 | 10.01698 | 124.19534 | 12348 ft | 415 kts | 189° |
| 2026-04-29 07:50 | 9.98847 | 124.18959 | 12882 ft | 418 kts | 189° |
| 2026-04-29 07:51 | 9.95944 | 124.18374 | 13437 ft | 420 kts | 189° |
| 2026-04-29 07:51 | 9.93070 | 124.17797 | 13959 ft | 423 kts | 189° |
| 2026-04-29 07:51 | 9.90133 | 124.17208 | 14499 ft | 425 kts | 189° |
| 2026-04-29 07:51 | 9.87238 | 124.16627 | 14989 ft | 427 kts | 189° |
| 2026-04-29 07:52 | 9.84292 | 124.16022 | 15481 ft | 430 kts | 192° |
| 2026-04-29 07:52 | 9.81434 | 124.15057 | 15947 ft | 434 kts | 202° |
| 2026-04-29 07:52 | 9.78758 | 124.13566 | 16414 ft | 437 kts | 213° |
| 2026-04-29 07:52 | 9.76368 | 124.11704 | 16864 ft | 440 kts | 218° |
| 2026-04-29 07:53 | 9.73999 | 124.09700 | 17292 ft | 442 kts | 219° |
| 2026-04-29 07:53 | 9.71629 | 124.07672 | 17698 ft | 444 kts | 219° |
| 2026-04-29 07:53 | 9.69274 | 124.05664 | 18080 ft | 447 kts | 219° |
| 2026-04-29 07:53 | 9.66875 | 124.03632 | 18461 ft | 449 kts | 219° |
| 2026-04-29 07:54 | 9.64469 | 124.01602 | 18838 ft | 451 kts | 219° |
| 2026-04-29 07:54 | 9.62039 | 123.99558 | 19187 ft | 453 kts | 219° |
| 2026-04-29 07:54 | 9.59601 | 123.97511 | 19541 ft | 455 kts | 218° |
| 2026-04-29 07:54 | 9.57146 | 123.95449 | 19882 ft | 458 kts | 219° |
| 2026-04-29 07:55 | 9.54715 | 123.93409 | 20210 ft | 460 kts | 218° |
| 2026-04-29 07:55 | 9.52214 | 123.91310 | 20551 ft | 462 kts | 218° |
| 2026-04-29 07:55 | 9.49720 | 123.89218 | 20866 ft | 464 kts | 218° |
| 2026-04-29 07:55 | 9.47226 | 123.87126 | 21181 ft | 466 kts | 218° |
| 2026-04-29 07:56 | 9.44746 | 123.85045 | 21486 ft | 469 kts | 218° |
| 2026-04-29 07:56 | 9.42226 | 123.82933 | 21778 ft | 471 kts | 218° |
| 2026-04-29 07:56 | 9.39687 | 123.80772 | 22082 ft | 473 kts | 221° |
| 2026-04-29 07:56 | 9.37377 | 123.78374 | 22391 ft | 476 kts | 229° |
| 2026-04-29 07:57 | 9.35389 | 123.75706 | 22689 ft | 479 kts | 236° |
| 2026-04-29 07:57 | 9.33715 | 123.72791 | 22982 ft | 482 kts | 241° |
| 2026-04-29 07:57 | 9.32145 | 123.69762 | 23297 ft | 484 kts | 242° |
| 2026-04-29 07:57 | 9.30612 | 123.66747 | 23605 ft | 485 kts | 242° |
| 2026-04-29 07:58 | 9.29047 | 123.63669 | 23883 ft | 488 kts | 242° |
| 2026-04-29 07:58 | 9.27481 | 123.60609 | 24172 ft | 490 kts | 242° |
| 2026-04-29 07:58 | 9.25914 | 123.57564 | 24461 ft | 491 kts | 242° |
| 2026-04-29 07:58 | 9.24332 | 123.54501 | 24723 ft | 493 kts | 242° |
| 2026-04-29 07:59 | 9.22734 | 123.51412 | 24972 ft | 495 kts | 242° |